Huvudsida
METAR-TAF:

METAR-TAF

Flygplatser :

Lafayette, Indiana, USA

latitud: 40-24-45N, longitud: 086-56-51W, höjd: 184 m

Aktuellt väderrapport

Denna rapport gjordes för 57 minuter sedan, klockan 14:54 UTC
Stilla vind
Temperatur -3°C
Fuktighet 100%
Tryck 1025 hPa
Sikt: 8.0 km
Klar himmel
fuktdis

METAR: KLAF 181454Z 00000KT 5SM BR CLR M03/M03 A3027 RMK AO2 SLP256 I3000 T10281028 53005

Tid: 10:51 (15:51 UTC)

Väderprognos

Denna rapport gjordes för 1 timme och 44 minuter sedan, klockan 14:07 UTC
Prognos gäller från 18 kl. 14 UTC till 19 kl. 12 UTC
Vind kt från nord
Sikt: 10 km
Klar himmel
Temporärt
från 18 kl. 14 UTC till 18 kl. 16 UTC
Sikt: 6.4 km
fuktdis
Från 18 kl. 1600 UTC
Vind 5 kt varierande vindriktning
Sikt: 10 km
Spridda moln på en höjd av 25000 ft

TAF: KLAF 181407Z 1814/1912 00000KT P6SM SKC TEMPO 1814/1816 4SM BR FM181600 VRB05KT P6SM SCT250

Aktuella väderrapporter och prognoser från 4000 flygplatser (METAR- och TAF-rapporter).

De tillgängliga stationerna syns som gula och röda prickar på kartan.

För musen över prickarna för att se namnen på stationerna.

Klicka sedan för att få väderrapporter och prognoser.

För att ändra kartan: Klicka på de gröna knapparna med ett svart kors på för att zooma in; den gröna knappen med ett streck på för att zooma ut; eller på de gröna pilarna för angränsande kartor.


METAR-TAF: